• pl
  • eng

Awiacja
WIADOMOŚCI
ostatnia aktualizacja: 26.09.2019 09:57
Uprzejmie informujemy, że od dnia 2.09.2019 jest dostępna w formie testowej prognoza GAFOR. Prosimy o przesyłanie na adres gafor@imgw.pl uwag i sugestii, które przyczynią się do rozwoju produktu.
Kliknij na pogrubioną czerwoną nazwę, aby odkodować depeszę. 07:01 22.01.2020
  • WIND
  • SIGNIFICANT EURO
  • SIGNIFICANT
  • SIGMET
  • AIRMET
  • TAF FC
  • TAF FT
  • METAR GG30
  • METAR GG00


METAR EPBY 220600Z 27017KT 9999 OVC005 04/02 Q1023=

METAR EPGD 220600Z 30017KT 9999 OVC017 05/02 Q1019 =

METAR EPKK 220600Z 24011KT CAVOK M01/M05 Q1028 =

METAR EPKT 220600Z 24012KT 6000 NSC M03/M05 Q1028 =

METAR EPLB 220600Z 27015KT 5000 -RASN OVC014 00/00 Q1022 =

METAR EPLL 220600Z 26016KT 5000 -DZ BR OVC004 00/M01 Q1025 =

METAR EPMO 220600Z 25019KT 4500 -RA BR OVC006 02/02 Q1021 =

METAR EPPO 220600Z 27011KT 2400 -DZ BR OVC003 02/02 Q1027 =

METAR EPRA 220600Z NIL=

METAR EPRZ 220600Z 22016KT CAVOK M01/M05 Q1026 =

METAR EPSC 220600Z 28013KT 9999 -RA FEW003 OVC006 05/04 Q1027 =

METAR EPSY 220600Z 28010G21KT 240V330 8000 -RA SCT009 BKN016 OVC020
04/03 Q1018=

METAR EPWA 220600Z 26013KT 8000 BKN005 02/01 Q1022 NOSIG=

METAR EPWR 220600Z 30009KT CAVOK M02/M04 Q1029 =

METAR EPZG 220600Z 24009KT 0600 R24/1500N DZ FG OVC003 01/01 Q1029 =
 METAR EPWA
Lokalizacja:EPWA Warszawa
Czas:06:00 UTC
Średni kierunek wiatru:260 °
Średnia prędkość wiatru:13 węzłów
Widzialność:8 kilometrów
Pierwsza warstwa chmur:5/8 do 7/8, wysokość podstawy 500 FT
Temperatura powietrza:2 °C
Temperatura punktu rosy:1 °C
Ciśnienie QNH:1022 hPa
Prognoza TREND:brak istotnych zmian warunków meteorologicznych
w ciągu dwóch najbliższych godzin
Awiacja.imgw.pl jest pogodowym serwisem informacyjnym
Instytutu Meteorologii i Gospodarki Wodnej Państwowego Instytutu Badawczego.
Copyright IMGW PIB 2009-2019© Wszelkie prawa zastrzeżone.